sensor_id;sensor_type;location;lat;lon;timestamp;P1;durP1;ratioP1;P2;durP2;ratioP2
12681;SDS011;6405;59.208;18.216;2023-03-20T00:00:30;9.83;;;2.83;;
12681;SDS011;6405;59.208;18.216;2023-03-20T00:02:58;8.37;;;3.07;;
12681;SDS011;6405;59.208;18.216;2023-03-20T00:05:25;10.40;;;3.10;;
12681;SDS011;6405;59.208;18.216;2023-03-20T00:07:52;10.43;;;2.77;;
12681;SDS011;6405;59.208;18.216;2023-03-20T00:10:20;11.70;;;2.93;;
12681;SDS011;6405;59.208;18.216;2023-03-20T00:12:47;11.67;;;3.20;;
12681;SDS011;6405;59.208;18.216;2023-03-20T00:15:16;10.90;;;2.57;;
12681;SDS011;6405;59.208;18.216;2023-03-20T00:17:58;7.13;;;3.50;;
12681;SDS011;6405;59.208;18.216;2023-03-20T00:20:24;10.33;;;3.40;;
12681;SDS011;6405;59.208;18.216;2023-03-20T00:22:50;9.47;;;3.10;;
12681;SDS011;6405;59.208;18.216;2023-03-20T00:25:17;12.27;;;3.40;;
12681;SDS011;6405;59.208;18.216;2023-03-20T00:27:45;10.77;;;3.50;;
12681;SDS011;6405;59.208;18.216;2023-03-20T00:32:50;18.37;;;3.53;;
12681;SDS011;6405;59.208;18.216;2023-03-20T00:35:21;10.43;;;3.50;;
12681;SDS011;6405;59.208;18.216;2023-03-20T00:37:47;14.63;;;4.37;;
12681;SDS011;6405;59.208;18.216;2023-03-20T00:40:13;18.70;;;3.57;;
12681;SDS011;6405;59.208;18.216;2023-03-20T00:42:39;12.60;;;3.40;;
12681;SDS011;6405;59.208;18.216;2023-03-20T00:45:05;32.87;;;6.40;;
12681;SDS011;6405;59.208;18.216;2023-03-20T00:47:36;8.33;;;3.30;;
12681;SDS011;6405;59.208;18.216;2023-03-20T00:50:06;13.23;;;4.20;;
12681;SDS011;6405;59.208;18.216;2023-03-20T00:52:39;18.27;;;4.73;;
12681;SDS011;6405;59.208;18.216;2023-03-20T00:55:05;17.20;;;4.43;;
12681;SDS011;6405;59.208;18.216;2023-03-20T01:02:45;16.03;;;4.27;;
12681;SDS011;6405;59.208;18.216;2023-03-20T01:05:11;17.40;;;3.83;;
12681;SDS011;6405;59.208;18.216;2023-03-20T01:07:37;15.80;;;3.87;;
12681;SDS011;6405;59.208;18.216;2023-03-20T01:10:04;16.20;;;4.13;;
12681;SDS011;6405;59.208;18.216;2023-03-20T01:12:30;30.77;;;5.33;;
12681;SDS011;6405;59.208;18.216;2023-03-20T01:14:56;7.23;;;3.40;;
12681;SDS011;6405;59.208;18.216;2023-03-20T01:17:24;18.23;;;3.97;;
12681;SDS011;6405;59.208;18.216;2023-03-20T01:19:51;14.00;;;4.63;;
12681;SDS011;6405;59.208;18.216;2023-03-20T01:22:17;9.93;;;3.27;;
12681;SDS011;6405;59.208;18.216;2023-03-20T01:24:43;16.20;;;4.87;;
12681;SDS011;6405;59.208;18.216;2023-03-20T01:27:12;11.87;;;3.70;;
12681;SDS011;6405;59.208;18.216;2023-03-20T01:29:40;12.37;;;3.57;;
12681;SDS011;6405;59.208;18.216;2023-03-20T01:32:08;6.23;;;3.27;;
12681;SDS011;6405;59.208;18.216;2023-03-20T01:34:37;8.30;;;3.20;;
12681;SDS011;6405;59.208;18.216;2023-03-20T01:37:02;18.63;;;3.97;;
12681;SDS011;6405;59.208;18.216;2023-03-20T01:39:31;12.03;;;3.60;;
12681;SDS011;6405;59.208;18.216;2023-03-20T01:42:00;10.47;;;3.33;;
12681;SDS011;6405;59.208;18.216;2023-03-20T01:44:28;9.70;;;3.50;;
12681;SDS011;6405;59.208;18.216;2023-03-20T01:46:56;8.40;;;3.80;;
12681;SDS011;6405;59.208;18.216;2023-03-20T01:51:48;17.27;;;3.80;;
12681;SDS011;6405;59.208;18.216;2023-03-20T01:54:20;21.90;;;4.10;;
12681;SDS011;6405;59.208;18.216;2023-03-20T01:59:28;10.20;;;4.80;;
12681;SDS011;6405;59.208;18.216;2023-03-20T02:01:57;16.60;;;4.03;;
12681;SDS011;6405;59.208;18.216;2023-03-20T02:04:24;8.53;;;3.53;;
12681;SDS011;6405;59.208;18.216;2023-03-20T02:06:53;8.43;;;3.50;;
12681;SDS011;6405;59.208;18.216;2023-03-20T02:09:19;9.03;;;3.90;;
12681;SDS011;6405;59.208;18.216;2023-03-20T02:11:45;10.13;;;3.57;;
12681;SDS011;6405;59.208;18.216;2023-03-20T02:14:11;6.47;;;4.10;;
12681;SDS011;6405;59.208;18.216;2023-03-20T02:16:38;9.67;;;3.50;;
12681;SDS011;6405;59.208;18.216;2023-03-20T02:19:03;8.83;;;3.93;;
12681;SDS011;6405;59.208;18.216;2023-03-20T02:38:27;10.93;;;4.77;;
12681;SDS011;6405;59.208;18.216;2023-03-20T02:41:25;32.30;;;5.63;;
12681;SDS011;6405;59.208;18.216;2023-03-20T02:47:10;9.40;;;3.83;;
12681;SDS011;6405;59.208;18.216;2023-03-20T02:52:35;27.37;;;6.23;;
12681;SDS011;6405;59.208;18.216;2023-03-20T02:57:54;17.07;;;5.70;;
12681;SDS011;6405;59.208;18.216;2023-03-20T03:00:59;20.57;;;5.87;;
12681;SDS011;6405;59.208;18.216;2023-03-20T03:03:27;15.77;;;5.77;;
12681;SDS011;6405;59.208;18.216;2023-03-20T03:06:01;28.57;;;5.27;;
12681;SDS011;6405;59.208;18.216;2023-03-20T03:08:55;14.97;;;5.10;;
12681;SDS011;6405;59.208;18.216;2023-03-20T03:11:50;31.20;;;5.80;;
12681;SDS011;6405;59.208;18.216;2023-03-20T03:14:31;30.70;;;5.97;;
12681;SDS011;6405;59.208;18.216;2023-03-20T03:17:02;26.70;;;9.47;;
12681;SDS011;6405;59.208;18.216;2023-03-20T03:19:30;19.83;;;6.73;;
12681;SDS011;6405;59.208;18.216;2023-03-20T03:21:57;12.87;;;5.20;;
12681;SDS011;6405;59.208;18.216;2023-03-20T03:26:54;22.97;;;6.47;;
12681;SDS011;6405;59.208;18.216;2023-03-20T03:29:23;15.80;;;6.27;;
12681;SDS011;6405;59.208;18.216;2023-03-20T03:31:52;19.27;;;5.40;;
12681;SDS011;6405;59.208;18.216;2023-03-20T03:34:18;30.43;;;6.47;;
12681;SDS011;6405;59.208;18.216;2023-03-20T03:37:04;38.00;;;9.73;;
12681;SDS011;6405;59.208;18.216;2023-03-20T03:39:48;17.83;;;5.77;;
12681;SDS011;6405;59.208;18.216;2023-03-20T03:42:29;14.60;;;5.40;;
12681;SDS011;6405;59.208;18.216;2023-03-20T03:45:17;17.80;;;6.03;;
12681;SDS011;6405;59.208;18.216;2023-03-20T03:50:58;58.57;;;8.93;;
12681;SDS011;6405;59.208;18.216;2023-03-20T03:53:38;24.90;;;5.87;;
12681;SDS011;6405;59.208;18.216;2023-03-20T03:56:09;30.97;;;6.60;;
12681;SDS011;6405;59.208;18.216;2023-03-20T03:58:38;15.97;;;6.57;;
12681;SDS011;6405;59.208;18.216;2023-03-20T04:01:06;20.30;;;5.83;;
12681;SDS011;6405;59.208;18.216;2023-03-20T04:03:37;14.27;;;4.73;;
12681;SDS011;6405;59.208;18.216;2023-03-20T04:06:05;11.63;;;4.63;;
12681;SDS011;6405;59.208;18.216;2023-03-20T04:08:35;9.70;;;4.57;;
12681;SDS011;6405;59.208;18.216;2023-03-20T04:11:01;9.57;;;4.83;;
12681;SDS011;6405;59.208;18.216;2023-03-20T04:13:26;7.73;;;4.20;;
12681;SDS011;6405;59.208;18.216;2023-03-20T04:15:52;9.23;;;4.17;;
12681;SDS011;6405;59.208;18.216;2023-03-20T04:18:18;8.77;;;3.90;;
12681;SDS011;6405;59.208;18.216;2023-03-20T04:20:44;5.17;;;3.30;;
12681;SDS011;6405;59.208;18.216;2023-03-20T04:23:10;3.73;;;2.80;;
12681;SDS011;6405;59.208;18.216;2023-03-20T04:25:36;3.13;;;2.43;;
12681;SDS011;6405;59.208;18.216;2023-03-20T04:28:02;3.87;;;3.00;;
12681;SDS011;6405;59.208;18.216;2023-03-20T04:30:28;2.70;;;2.47;;
12681;SDS011;6405;59.208;18.216;2023-03-20T04:32:54;3.20;;;2.70;;
12681;SDS011;6405;59.208;18.216;2023-03-20T04:35:21;3.27;;;2.63;;
12681;SDS011;6405;59.208;18.216;2023-03-20T04:37:47;3.37;;;2.80;;
12681;SDS011;6405;59.208;18.216;2023-03-20T04:40:12;3.93;;;2.27;;
12681;SDS011;6405;59.208;18.216;2023-03-20T04:42:38;6.53;;;3.30;;
12681;SDS011;6405;59.208;18.216;2023-03-20T04:45:04;4.00;;;2.70;;
12681;SDS011;6405;59.208;18.216;2023-03-20T04:47:30;4.10;;;2.83;;
12681;SDS011;6405;59.208;18.216;2023-03-20T04:49:56;5.00;;;3.10;;
12681;SDS011;6405;59.208;18.216;2023-03-20T04:52:22;3.67;;;2.70;;
12681;SDS011;6405;59.208;18.216;2023-03-20T04:54:47;3.83;;;2.77;;
12681;SDS011;6405;59.208;18.216;2023-03-20T04:57:13;4.63;;;3.03;;
12681;SDS011;6405;59.208;18.216;2023-03-20T04:59:40;4.37;;;3.30;;
12681;SDS011;6405;59.208;18.216;2023-03-20T05:02:05;4.17;;;3.30;;
12681;SDS011;6405;59.208;18.216;2023-03-20T05:04:31;4.33;;;3.10;;
12681;SDS011;6405;59.208;18.216;2023-03-20T05:06:56;4.40;;;2.77;;
12681;SDS011;6405;59.208;18.216;2023-03-20T05:09:22;4.20;;;3.07;;
12681;SDS011;6405;59.208;18.216;2023-03-20T05:11:48;3.87;;;2.80;;
12681;SDS011;6405;59.208;18.216;2023-03-20T05:14:13;3.83;;;2.93;;
12681;SDS011;6405;59.208;18.216;2023-03-20T05:16:39;4.20;;;3.27;;
12681;SDS011;6405;59.208;18.216;2023-03-20T05:19:05;4.13;;;3.27;;
12681;SDS011;6405;59.208;18.216;2023-03-20T05:21:30;3.73;;;3.10;;
12681;SDS011;6405;59.208;18.216;2023-03-20T05:23:56;4.47;;;3.40;;
12681;SDS011;6405;59.208;18.216;2023-03-20T05:26:22;6.30;;;3.30;;
12681;SDS011;6405;59.208;18.216;2023-03-20T05:28:47;6.10;;;3.40;;
12681;SDS011;6405;59.208;18.216;2023-03-20T05:31:13;6.60;;;3.87;;
12681;SDS011;6405;59.208;18.216;2023-03-20T05:33:39;9.30;;;4.53;;
12681;SDS011;6405;59.208;18.216;2023-03-20T05:36:05;6.63;;;4.70;;
12681;SDS011;6405;59.208;18.216;2023-03-20T05:38:31;15.17;;;5.70;;
12681;SDS011;6405;59.208;18.216;2023-03-20T05:40:57;9.43;;;4.80;;
12681;SDS011;6405;59.208;18.216;2023-03-20T05:43:24;9.37;;;5.13;;
12681;SDS011;6405;59.208;18.216;2023-03-20T05:45:51;9.87;;;5.23;;
12681;SDS011;6405;59.208;18.216;2023-03-20T05:48:17;13.53;;;6.50;;
12681;SDS011;6405;59.208;18.216;2023-03-20T05:50:42;16.37;;;5.40;;
12681;SDS011;6405;59.208;18.216;2023-03-20T05:53:08;22.07;;;7.03;;
12681;SDS011;6405;59.208;18.216;2023-03-20T05:55:34;13.80;;;5.23;;
12681;SDS011;6405;59.208;18.216;2023-03-20T05:58:00;14.70;;;5.93;;
12681;SDS011;6405;59.208;18.216;2023-03-20T06:00:25;16.83;;;5.77;;
12681;SDS011;6405;59.208;18.216;2023-03-20T06:02:51;12.83;;;5.90;;
12681;SDS011;6405;59.208;18.216;2023-03-20T06:05:17;19.87;;;6.03;;
12681;SDS011;6405;59.208;18.216;2023-03-20T06:07:42;15.30;;;5.90;;
12681;SDS011;6405;59.208;18.216;2023-03-20T06:10:08;15.43;;;5.13;;
12681;SDS011;6405;59.208;18.216;2023-03-20T06:12:34;23.17;;;7.87;;
12681;SDS011;6405;59.208;18.216;2023-03-20T06:15:00;13.87;;;6.13;;
12681;SDS011;6405;59.208;18.216;2023-03-20T06:17:27;37.33;;;7.43;;
12681;SDS011;6405;59.208;18.216;2023-03-20T06:19:52;32.87;;;7.57;;
12681;SDS011;6405;59.208;18.216;2023-03-20T06:22:18;20.00;;;6.77;;
12681;SDS011;6405;59.208;18.216;2023-03-20T06:24:44;45.97;;;8.23;;
12681;SDS011;6405;59.208;18.216;2023-03-20T06:27:10;36.43;;;9.23;;
12681;SDS011;6405;59.208;18.216;2023-03-20T06:29:36;28.30;;;7.60;;
12681;SDS011;6405;59.208;18.216;2023-03-20T06:32:01;28.87;;;8.17;;
12681;SDS011;6405;59.208;18.216;2023-03-20T06:34:27;26.17;;;7.70;;
12681;SDS011;6405;59.208;18.216;2023-03-20T06:36:54;24.03;;;8.10;;
12681;SDS011;6405;59.208;18.216;2023-03-20T06:39:20;23.70;;;7.37;;
12681;SDS011;6405;59.208;18.216;2023-03-20T06:41:46;18.67;;;6.57;;
12681;SDS011;6405;59.208;18.216;2023-03-20T06:44:11;30.17;;;7.77;;
12681;SDS011;6405;59.208;18.216;2023-03-20T06:46:37;28.33;;;8.27;;
12681;SDS011;6405;59.208;18.216;2023-03-20T06:49:03;57.63;;;9.37;;
12681;SDS011;6405;59.208;18.216;2023-03-20T06:51:28;23.00;;;8.20;;
12681;SDS011;6405;59.208;18.216;2023-03-20T06:53:54;16.13;;;7.30;;
12681;SDS011;6405;59.208;18.216;2023-03-20T06:56:20;23.27;;;8.60;;
12681;SDS011;6405;59.208;18.216;2023-03-20T06:58:45;22.70;;;7.70;;
12681;SDS011;6405;59.208;18.216;2023-03-20T07:01:11;22.23;;;7.73;;
12681;SDS011;6405;59.208;18.216;2023-03-20T07:03:39;24.30;;;8.17;;
12681;SDS011;6405;59.208;18.216;2023-03-20T07:06:05;25.23;;;7.80;;
12681;SDS011;6405;59.208;18.216;2023-03-20T07:08:32;23.57;;;9.10;;
12681;SDS011;6405;59.208;18.216;2023-03-20T07:10:58;22.57;;;9.03;;
12681;SDS011;6405;59.208;18.216;2023-03-20T07:13:25;23.63;;;9.70;;
12681;SDS011;6405;59.208;18.216;2023-03-20T07:15:52;16.37;;;8.43;;
12681;SDS011;6405;59.208;18.216;2023-03-20T07:18:18;21.20;;;8.93;;
12681;SDS011;6405;59.208;18.216;2023-03-20T07:20:44;24.73;;;8.53;;
12681;SDS011;6405;59.208;18.216;2023-03-20T07:23:10;20.00;;;8.23;;
12681;SDS011;6405;59.208;18.216;2023-03-20T07:25:36;22.07;;;8.30;;
12681;SDS011;6405;59.208;18.216;2023-03-20T07:28:03;21.90;;;7.90;;
12681;SDS011;6405;59.208;18.216;2023-03-20T07:30:30;18.73;;;8.70;;
12681;SDS011;6405;59.208;18.216;2023-03-20T07:32:56;24.80;;;8.40;;
12681;SDS011;6405;59.208;18.216;2023-03-20T07:35:22;39.60;;;9.50;;
12681;SDS011;6405;59.208;18.216;2023-03-20T07:37:48;19.47;;;8.70;;
12681;SDS011;6405;59.208;18.216;2023-03-20T07:40:14;21.00;;;9.20;;
12681;SDS011;6405;59.208;18.216;2023-03-20T07:42:40;27.93;;;9.10;;
12681;SDS011;6405;59.208;18.216;2023-03-20T07:45:06;24.00;;;9.50;;
12681;SDS011;6405;59.208;18.216;2023-03-20T07:47:33;18.40;;;8.90;;
12681;SDS011;6405;59.208;18.216;2023-03-20T07:49:59;18.90;;;9.67;;
12681;SDS011;6405;59.208;18.216;2023-03-20T07:52:25;19.10;;;8.30;;
12681;SDS011;6405;59.208;18.216;2023-03-20T07:54:50;21.10;;;10.60;;
12681;SDS011;6405;59.208;18.216;2023-03-20T07:57:16;22.27;;;10.53;;
12681;SDS011;6405;59.208;18.216;2023-03-20T07:59:42;18.60;;;9.80;;
12681;SDS011;6405;59.208;18.216;2023-03-20T08:02:10;23.43;;;11.27;;
12681;SDS011;6405;59.208;18.216;2023-03-20T08:04:40;20.43;;;10.27;;
12681;SDS011;6405;59.208;18.216;2023-03-20T08:07:06;18.43;;;9.03;;
12681;SDS011;6405;59.208;18.216;2023-03-20T08:09:31;20.13;;;10.33;;
12681;SDS011;6405;59.208;18.216;2023-03-20T08:11:57;20.20;;;9.60;;
12681;SDS011;6405;59.208;18.216;2023-03-20T08:14:23;19.13;;;9.97;;
12681;SDS011;6405;59.208;18.216;2023-03-20T08:16:48;18.90;;;9.57;;
12681;SDS011;6405;59.208;18.216;2023-03-20T08:19:14;16.40;;;8.13;;
12681;SDS011;6405;59.208;18.216;2023-03-20T08:21:40;20.00;;;9.63;;
12681;SDS011;6405;59.208;18.216;2023-03-20T08:24:05;14.37;;;7.80;;
12681;SDS011;6405;59.208;18.216;2023-03-20T08:26:32;15.13;;;8.50;;
12681;SDS011;6405;59.208;18.216;2023-03-20T08:28:58;15.60;;;8.90;;
12681;SDS011;6405;59.208;18.216;2023-03-20T08:31:24;18.90;;;8.50;;
12681;SDS011;6405;59.208;18.216;2023-03-20T08:33:50;16.17;;;8.50;;
12681;SDS011;6405;59.208;18.216;2023-03-20T08:36:17;14.30;;;7.60;;
12681;SDS011;6405;59.208;18.216;2023-03-20T08:38:46;17.53;;;8.40;;
12681;SDS011;6405;59.208;18.216;2023-03-20T08:41:13;12.67;;;7.73;;
12681;SDS011;6405;59.208;18.216;2023-03-20T08:43:39;16.40;;;8.10;;
12681;SDS011;6405;59.208;18.216;2023-03-20T08:46:05;15.93;;;8.77;;
12681;SDS011;6405;59.208;18.216;2023-03-20T08:48:31;16.83;;;9.07;;
12681;SDS011;6405;59.208;18.216;2023-03-20T08:50:56;19.07;;;8.67;;
12681;SDS011;6405;59.208;18.216;2023-03-20T08:53:22;15.17;;;9.00;;
12681;SDS011;6405;59.208;18.216;2023-03-20T08:55:48;17.47;;;9.13;;
12681;SDS011;6405;59.208;18.216;2023-03-20T08:58:16;16.60;;;9.87;;
12681;SDS011;6405;59.208;18.216;2023-03-20T09:00:42;16.33;;;8.83;;
12681;SDS011;6405;59.208;18.216;2023-03-20T09:03:10;16.53;;;9.50;;
12681;SDS011;6405;59.208;18.216;2023-03-20T09:05:44;17.23;;;9.43;;
12681;SDS011;6405;59.208;18.216;2023-03-20T09:08:11;18.10;;;9.73;;
12681;SDS011;6405;59.208;18.216;2023-03-20T09:10:37;21.80;;;10.53;;
12681;SDS011;6405;59.208;18.216;2023-03-20T09:13:04;17.43;;;9.70;;
12681;SDS011;6405;59.208;18.216;2023-03-20T09:15:30;20.23;;;10.30;;
12681;SDS011;6405;59.208;18.216;2023-03-20T09:17:56;18.87;;;9.47;;
12681;SDS011;6405;59.208;18.216;2023-03-20T09:20:22;17.40;;;8.83;;
12681;SDS011;6405;59.208;18.216;2023-03-20T09:22:48;15.53;;;8.97;;
12681;SDS011;6405;59.208;18.216;2023-03-20T09:25:14;17.20;;;9.77;;
12681;SDS011;6405;59.208;18.216;2023-03-20T09:27:40;15.57;;;9.47;;
12681;SDS011;6405;59.208;18.216;2023-03-20T09:30:06;17.67;;;9.73;;
12681;SDS011;6405;59.208;18.216;2023-03-20T09:32:33;17.63;;;9.40;;
12681;SDS011;6405;59.208;18.216;2023-03-20T09:35:00;14.53;;;8.83;;
12681;SDS011;6405;59.208;18.216;2023-03-20T09:37:26;15.77;;;9.17;;
12681;SDS011;6405;59.208;18.216;2023-03-20T09:39:52;15.97;;;9.33;;
12681;SDS011;6405;59.208;18.216;2023-03-20T09:42:31;16.43;;;9.83;;
12681;SDS011;6405;59.208;18.216;2023-03-20T09:45:13;14.07;;;8.37;;
12681;SDS011;6405;59.208;18.216;2023-03-20T09:50:30;16.63;;;9.33;;
12681;SDS011;6405;59.208;18.216;2023-03-20T09:53:04;18.23;;;9.70;;
12681;SDS011;6405;59.208;18.216;2023-03-20T09:55:48;17.80;;;8.93;;
12681;SDS011;6405;59.208;18.216;2023-03-20T09:58:20;18.03;;;9.47;;
12681;SDS011;6405;59.208;18.216;2023-03-20T10:00:49;17.43;;;9.37;;
12681;SDS011;6405;59.208;18.216;2023-03-20T10:08:12;14.87;;;9.17;;
12681;SDS011;6405;59.208;18.216;2023-03-20T10:19:21;16.00;;;9.50;;
12681;SDS011;6405;59.208;18.216;2023-03-20T10:24:47;15.53;;;9.50;;
12681;SDS011;6405;59.208;18.216;2023-03-20T10:27:35;14.37;;;9.33;;
12681;SDS011;6405;59.208;18.216;2023-03-20T10:41:00;14.63;;;9.33;;
12681;SDS011;6405;59.208;18.216;2023-03-20T10:48:44;15.80;;;9.53;;
12681;SDS011;6405;59.208;18.216;2023-03-20T10:51:20;16.73;;;10.90;;
12681;SDS011;6405;59.208;18.216;2023-03-20T10:53:55;14.87;;;9.23;;
12681;SDS011;6405;59.208;18.216;2023-03-20T11:01:46;17.30;;;9.93;;
12681;SDS011;6405;59.208;18.216;2023-03-20T11:04:12;16.23;;;9.80;;
12681;SDS011;6405;59.208;18.216;2023-03-20T11:06:40;20.57;;;11.07;;
12681;SDS011;6405;59.208;18.216;2023-03-20T11:09:27;16.97;;;10.33;;
12681;SDS011;6405;59.208;18.216;2023-03-20T11:11:57;15.30;;;10.43;;
12681;SDS011;6405;59.208;18.216;2023-03-20T11:14:26;16.23;;;9.47;;
12681;SDS011;6405;59.208;18.216;2023-03-20T11:17:02;16.60;;;10.20;;
12681;SDS011;6405;59.208;18.216;2023-03-20T11:19:36;16.83;;;9.70;;
12681;SDS011;6405;59.208;18.216;2023-03-20T11:22:12;15.53;;;9.43;;
12681;SDS011;6405;59.208;18.216;2023-03-20T11:24:50;14.27;;;9.63;;
12681;SDS011;6405;59.208;18.216;2023-03-20T11:27:29;15.00;;;10.00;;
12681;SDS011;6405;59.208;18.216;2023-03-20T11:29:57;17.47;;;9.93;;
12681;SDS011;6405;59.208;18.216;2023-03-20T11:32:32;17.27;;;9.57;;
12681;SDS011;6405;59.208;18.216;2023-03-20T11:37:45;18.23;;;10.40;;
12681;SDS011;6405;59.208;18.216;2023-03-20T11:40:20;16.97;;;10.63;;
12681;SDS011;6405;59.208;18.216;2023-03-20T11:45:24;16.93;;;10.57;;
12681;SDS011;6405;59.208;18.216;2023-03-20T11:47:52;19.63;;;11.47;;
12681;SDS011;6405;59.208;18.216;2023-03-20T11:50:33;17.97;;;10.80;;
12681;SDS011;6405;59.208;18.216;2023-03-20T11:53:02;18.23;;;11.30;;
12681;SDS011;6405;59.208;18.216;2023-03-20T11:55:39;18.40;;;10.00;;
12681;SDS011;6405;59.208;18.216;2023-03-20T11:58:06;15.57;;;10.40;;
12681;SDS011;6405;59.208;18.216;2023-03-20T12:00:41;18.33;;;10.17;;
12681;SDS011;6405;59.208;18.216;2023-03-20T12:06:07;17.07;;;10.20;;
12681;SDS011;6405;59.208;18.216;2023-03-20T12:08:38;17.57;;;10.67;;
12681;SDS011;6405;59.208;18.216;2023-03-20T12:11:07;16.60;;;10.87;;
12681;SDS011;6405;59.208;18.216;2023-03-20T12:13:44;16.57;;;10.97;;
12681;SDS011;6405;59.208;18.216;2023-03-20T12:16:14;17.23;;;9.80;;
12681;SDS011;6405;59.208;18.216;2023-03-20T12:18:45;17.27;;;10.50;;
12681;SDS011;6405;59.208;18.216;2023-03-20T12:21:18;16.00;;;10.33;;
12681;SDS011;6405;59.208;18.216;2023-03-20T12:23:52;20.43;;;11.70;;
12681;SDS011;6405;59.208;18.216;2023-03-20T12:26:36;20.37;;;11.87;;
12681;SDS011;6405;59.208;18.216;2023-03-20T12:32:03;19.50;;;12.30;;
12681;SDS011;6405;59.208;18.216;2023-03-20T12:34:41;20.17;;;11.40;;
12681;SDS011;6405;59.208;18.216;2023-03-20T12:37:11;18.17;;;11.17;;
12681;SDS011;6405;59.208;18.216;2023-03-20T12:39:38;19.37;;;12.20;;
12681;SDS011;6405;59.208;18.216;2023-03-20T12:45:11;19.77;;;12.57;;
12681;SDS011;6405;59.208;18.216;2023-03-20T12:47:54;18.50;;;11.57;;
12681;SDS011;6405;59.208;18.216;2023-03-20T12:50:34;21.23;;;12.07;;
12681;SDS011;6405;59.208;18.216;2023-03-20T12:53:39;18.20;;;11.30;;
12681;SDS011;6405;59.208;18.216;2023-03-20T12:56:21;19.07;;;11.83;;
12681;SDS011;6405;59.208;18.216;2023-03-20T12:59:15;18.97;;;12.03;;
12681;SDS011;6405;59.208;18.216;2023-03-20T13:01:55;20.03;;;12.23;;
12681;SDS011;6405;59.208;18.216;2023-03-20T13:04:42;18.80;;;11.23;;
12681;SDS011;6405;59.208;18.216;2023-03-20T13:10:07;16.23;;;10.70;;
12681;SDS011;6405;59.208;18.216;2023-03-20T13:18:08;15.87;;;9.93;;
12681;SDS011;6405;59.208;18.216;2023-03-20T13:20:57;13.70;;;9.17;;
12681;SDS011;6405;59.208;18.216;2023-03-20T13:23:40;13.67;;;8.67;;
12681;SDS011;6405;59.208;18.216;2023-03-20T13:26:17;14.07;;;9.53;;
12681;SDS011;6405;59.208;18.216;2023-03-20T13:29:07;13.70;;;9.17;;
12681;SDS011;6405;59.208;18.216;2023-03-20T13:37:49;15.27;;;11.00;;
12681;SDS011;6405;59.208;18.216;2023-03-20T13:40:23;12.13;;;8.67;;
12681;SDS011;6405;59.208;18.216;2023-03-20T13:45:39;9.77;;;6.37;;
12681;SDS011;6405;59.208;18.216;2023-03-20T13:53:23;9.23;;;6.70;;
12681;SDS011;6405;59.208;18.216;2023-03-20T13:59:14;7.50;;;5.73;;
12681;SDS011;6405;59.208;18.216;2023-03-20T14:05:03;6.47;;;4.53;;
12681;SDS011;6405;59.208;18.216;2023-03-20T14:07:36;9.40;;;5.37;;
12681;SDS011;6405;59.208;18.216;2023-03-20T14:12:54;6.13;;;4.77;;
12681;SDS011;6405;59.208;18.216;2023-03-20T14:15:20;4.77;;;3.40;;
12681;SDS011;6405;59.208;18.216;2023-03-20T14:17:50;4.20;;;3.50;;
12681;SDS011;6405;59.208;18.216;2023-03-20T14:20:31;4.60;;;3.57;;
12681;SDS011;6405;59.208;18.216;2023-03-20T14:23:02;4.73;;;3.47;;
12681;SDS011;6405;59.208;18.216;2023-03-20T14:25:33;4.00;;;3.07;;
12681;SDS011;6405;59.208;18.216;2023-03-20T14:28:06;4.30;;;2.60;;
12681;SDS011;6405;59.208;18.216;2023-03-20T14:35:43;2.83;;;2.03;;
12681;SDS011;6405;59.208;18.216;2023-03-20T14:38:14;4.00;;;1.77;;
12681;SDS011;6405;59.208;18.216;2023-03-20T14:49:33;3.07;;;1.73;;
12681;SDS011;6405;59.208;18.216;2023-03-20T14:57:48;0.77;;;0.70;;
12681;SDS011;6405;59.208;18.216;2023-03-20T15:00:18;1.23;;;0.60;;
12681;SDS011;6405;59.208;18.216;2023-03-20T15:02:50;1.00;;;0.90;;
12681;SDS011;6405;59.208;18.216;2023-03-20T15:05:25;0.40;;;0.40;;
12681;SDS011;6405;59.208;18.216;2023-03-20T15:07:57;0.30;;;0.30;;
12681;SDS011;6405;59.208;18.216;2023-03-20T15:10:35;0.40;;;0.30;;
12681;SDS011;6405;59.208;18.216;2023-03-20T15:13:09;0.47;;;0.40;;
12681;SDS011;6405;59.208;18.216;2023-03-20T15:15:37;0.40;;;0.40;;
12681;SDS011;6405;59.208;18.216;2023-03-20T15:18:15;0.20;;;0.20;;
12681;SDS011;6405;59.208;18.216;2023-03-20T15:20:42;0.50;;;0.50;;
12681;SDS011;6405;59.208;18.216;2023-03-20T15:23:08;0.30;;;0.20;;
12681;SDS011;6405;59.208;18.216;2023-03-20T15:25:37;0.27;;;0.20;;
12681;SDS011;6405;59.208;18.216;2023-03-20T15:28:10;0.40;;;0.30;;
12681;SDS011;6405;59.208;18.216;2023-03-20T15:30:38;2.00;;;0.60;;
12681;SDS011;6405;59.208;18.216;2023-03-20T15:33:05;0.30;;;0.30;;
12681;SDS011;6405;59.208;18.216;2023-03-20T15:35:32;0.70;;;0.40;;
12681;SDS011;6405;59.208;18.216;2023-03-20T15:38:02;0.53;;;0.40;;
12681;SDS011;6405;59.208;18.216;2023-03-20T15:40:30;1.47;;;0.80;;
12681;SDS011;6405;59.208;18.216;2023-03-20T15:42:57;0.43;;;0.40;;
12681;SDS011;6405;59.208;18.216;2023-03-20T15:45:27;0.60;;;0.60;;
12681;SDS011;6405;59.208;18.216;2023-03-20T15:48:03;0.30;;;0.30;;
12681;SDS011;6405;59.208;18.216;2023-03-20T15:50:31;0.30;;;0.30;;
12681;SDS011;6405;59.208;18.216;2023-03-20T15:52:58;1.13;;;0.43;;
12681;SDS011;6405;59.208;18.216;2023-03-20T15:55:25;0.60;;;0.60;;
12681;SDS011;6405;59.208;18.216;2023-03-20T15:57:52;0.80;;;0.40;;
12681;SDS011;6405;59.208;18.216;2023-03-20T16:00:27;0.50;;;0.50;;
12681;SDS011;6405;59.208;18.216;2023-03-20T16:02:56;0.60;;;0.60;;
12681;SDS011;6405;59.208;18.216;2023-03-20T16:05:26;0.30;;;0.30;;
12681;SDS011;6405;59.208;18.216;2023-03-20T16:07:53;0.40;;;0.40;;
12681;SDS011;6405;59.208;18.216;2023-03-20T16:10:21;0.40;;;0.30;;
12681;SDS011;6405;59.208;18.216;2023-03-20T16:12:54;0.63;;;0.30;;
12681;SDS011;6405;59.208;18.216;2023-03-20T16:15:21;0.40;;;0.40;;
12681;SDS011;6405;59.208;18.216;2023-03-20T16:17:50;0.37;;;0.37;;
12681;SDS011;6405;59.208;18.216;2023-03-20T16:20:19;0.30;;;0.30;;
12681;SDS011;6405;59.208;18.216;2023-03-20T16:22:48;0.33;;;0.33;;
12681;SDS011;6405;59.208;18.216;2023-03-20T16:25:16;0.87;;;0.60;;
12681;SDS011;6405;59.208;18.216;2023-03-20T16:27:43;0.50;;;0.50;;
12681;SDS011;6405;59.208;18.216;2023-03-20T16:30:19;0.30;;;0.30;;
12681;SDS011;6405;59.208;18.216;2023-03-20T16:32:49;0.47;;;0.47;;
12681;SDS011;6405;59.208;18.216;2023-03-20T16:36:04;0.50;;;0.40;;
12681;SDS011;6405;59.208;18.216;2023-03-20T16:38:28;0.47;;;0.20;;
12681;SDS011;6405;59.208;18.216;2023-03-20T16:41:12;0.60;;;0.60;;
12681;SDS011;6405;59.208;18.216;2023-03-20T16:43:38;0.83;;;0.40;;
12681;SDS011;6405;59.208;18.216;2023-03-20T16:46:05;0.40;;;0.33;;
12681;SDS011;6405;59.208;18.216;2023-03-20T16:48:34;0.30;;;0.30;;
12681;SDS011;6405;59.208;18.216;2023-03-20T16:53:41;0.40;;;0.40;;
12681;SDS011;6405;59.208;18.216;2023-03-20T16:56:16;0.70;;;0.40;;
12681;SDS011;6405;59.208;18.216;2023-03-20T16:58:54;0.87;;;0.70;;
12681;SDS011;6405;59.208;18.216;2023-03-20T17:01:20;0.30;;;0.30;;
12681;SDS011;6405;59.208;18.216;2023-03-20T17:03:51;0.33;;;0.33;;
12681;SDS011;6405;59.208;18.216;2023-03-20T17:08:48;0.40;;;0.40;;
12681;SDS011;6405;59.208;18.216;2023-03-20T17:11:31;2.90;;;1.17;;
12681;SDS011;6405;59.208;18.216;2023-03-20T17:13:57;2.10;;;0.87;;
12681;SDS011;6405;59.208;18.216;2023-03-20T17:16:23;0.60;;;0.60;;
12681;SDS011;6405;59.208;18.216;2023-03-20T17:18:59;0.43;;;0.43;;
12681;SDS011;6405;59.208;18.216;2023-03-20T17:21:35;0.50;;;0.50;;
12681;SDS011;6405;59.208;18.216;2023-03-20T17:24:01;0.67;;;0.60;;
12681;SDS011;6405;59.208;18.216;2023-03-20T17:26:27;1.53;;;0.70;;
12681;SDS011;6405;59.208;18.216;2023-03-20T17:28:53;1.00;;;0.50;;